Edmund, South Carolina
Current Conditions -  °F | °C
As of 2:56 PM on Saturday 25 Oct 2014 (Local Time) from KCAE Reporting Station
Clear Clear  
Wind Chill: 75°   Ceiling: Unl
Heat Index: 75°   Visibility: 10mi
Dew Point: 39°   Wind: 8mph
Humidity: 27%   Direction: 320°NW
Pressure: 29.97"   Gusts: NA
Location:  33.9903°N, 81.2681°W
Report Text: KCAE 251856Z 32007KT 10SM CLR 24/04 A2997 RMK AO2 SLP148 T02390039
Loading
Personal Weather Stations






























Interactive Weather Map
Tropical Storm Tracking
New forecast layout! Learn more

10-Day Weather Forecast

Advertisements
Track Severe Weather on mobile